createdAt,value
2017-08-18T07:29:26.831Z,99924.48
2017-08-18T07:32:28.226Z,99929.19
2017-08-18T07:35:29.623Z,99931.73
2017-08-18T07:38:30.979Z,99936.41
2017-08-18T07:41:32.360Z,99940.44
2017-08-18T07:44:33.719Z,99939.97
2017-08-18T07:47:35.131Z,99938.05
2017-08-18T07:50:36.499Z,99936.89
2017-08-18T07:53:37.875Z,99939.98
2017-08-18T07:56:39.227Z,99943.99
2017-08-18T07:59:40.626Z,99930.67
2017-08-18T08:02:42.313Z,99929.86
2017-08-18T08:05:43.655Z,99938.47
2017-08-18T08:08:45.040Z,99931.05
2017-08-18T08:11:46.412Z,99932.80
2017-08-18T08:14:48.537Z,99932.54
2017-08-18T08:17:49.911Z,99938.05
2017-08-18T08:20:51.289Z,99939.34
2017-08-18T08:23:52.623Z,99929.59
2017-08-18T08:26:54.043Z,99926.34
2017-08-18T08:29:55.380Z,99916.91
2017-08-18T08:32:56.720Z,99917.34
2017-08-18T08:35:58.092Z,99910.13
2017-08-18T08:38:59.455Z,99901.94
2017-08-18T08:42:00.846Z,99908.73
2017-08-18T08:45:02.221Z,99906.42
2017-08-18T08:48:03.619Z,99912.83
2017-08-18T08:51:05.015Z,99915.58
2017-08-18T08:54:06.409Z,99908.35
2017-08-18T08:57:08.008Z,99892.37
2017-08-18T09:00:09.388Z,99891.11
2017-08-18T09:03:10.764Z,99882.16
2017-08-18T09:06:12.101Z,99881.08
2017-08-18T09:09:13.496Z,99876.39
2017-08-18T09:12:14.970Z,99860.93
2017-08-18T09:15:16.339Z,99867.56
2017-08-18T09:18:17.695Z,99872.05
2017-08-18T09:21:19.058Z,99872.83
2017-08-18T09:24:20.446Z,99880.73
2017-08-18T09:27:22.568Z,99868.99
2017-08-18T09:30:24.356Z,99876.14
2017-08-18T09:33:25.737Z,99884.23
2017-08-18T09:36:27.188Z,99873.10
2017-08-18T09:39:29.307Z,99882.69
2017-08-18T09:42:30.751Z,99866.36
2017-08-18T09:45:32.109Z,99864.33
2017-08-18T09:48:51.959Z,99865.76
2017-08-18T09:52:12.188Z,99849.63
2017-08-18T09:55:31.936Z,99852.27
2017-08-18T09:58:51.680Z,99847.73
2017-08-18T10:01:53.791Z,99841.73
2017-08-18T10:04:55.190Z,99844.70
2017-08-18T10:07:56.552Z,99859.53
2017-08-18T10:10:58.713Z,99860.16
2017-08-18T10:14:00.125Z,99867.70
2017-08-18T10:17:01.555Z,99848.04
2017-08-18T10:20:03.015Z,99859.23
2017-08-18T10:23:04.421Z,99860.99
2017-08-18T10:26:06.584Z,99849.09
2017-08-18T10:29:07.984Z,99851.23
2017-08-18T10:32:09.415Z,99848.44
2017-08-18T10:35:10.801Z,99848.14
2017-08-18T10:38:12.208Z,99858.80
2017-08-18T10:41:13.603Z,99853.97
2017-08-18T10:44:14.983Z,99853.12
2017-08-18T10:47:16.748Z,99852.39
2017-08-18T10:50:18.124Z,99849.03
2017-08-18T10:53:19.503Z,99840.87
2017-08-18T10:56:21.601Z,99850.05
2017-08-18T10:59:22.987Z,99841.16
2017-08-18T11:02:24.341Z,99842.31
2017-08-18T11:05:25.704Z,99840.48
2017-08-18T11:08:27.863Z,99834.60
2017-08-18T11:11:29.235Z,99828.55
2017-08-18T11:14:31.348Z,99821.86
2017-08-18T11:17:32.733Z,99832.75
2017-08-18T11:20:34.232Z,99834.15
2017-08-18T11:23:35.565Z,99831.20
2017-08-18T11:26:36.935Z,99827.00
2017-08-18T11:29:38.341Z,99825.24
2017-08-18T11:32:39.760Z,99829.03
2017-08-18T11:35:41.130Z,99834.54
2017-08-18T11:38:42.516Z,99841.41
2017-08-18T11:41:43.889Z,99837.13
2017-08-18T11:44:45.299Z,99827.56
2017-08-18T11:47:46.661Z,99833.13
2017-08-18T11:50:48.042Z,99831.77
2017-08-18T11:53:49.424Z,99832.07
2017-08-18T11:56:50.744Z,99817.23
2017-08-18T11:59:52.161Z,99821.33
2017-08-18T12:02:53.499Z,99822.92
2017-08-18T12:05:54.932Z,99806.64
2017-08-18T12:08:56.599Z,99817.66
2017-08-18T12:11:57.924Z,99818.52
2017-08-18T12:15:00.387Z,99800.22
2017-08-18T12:18:01.735Z,99804.61
2017-08-18T12:21:03.200Z,99811.22
2017-08-18T12:27:19.548Z,99804.78
2017-08-18T12:30:20.864Z,99799.09
2017-08-18T12:33:22.231Z,99796.66
2017-08-18T12:36:23.900Z,99801.25
2017-08-18T12:39:25.316Z,99791.80
2017-08-18T12:42:26.736Z,99801.95
2017-08-18T12:45:28.135Z,99818.72
2017-08-18T12:48:30.346Z,99812.78
2017-08-18T12:51:31.711Z,99797.41
2017-08-18T12:54:33.109Z,99785.23
2017-08-18T12:57:34.447Z,99781.34
2017-08-18T13:00:35.847Z,99785.14
2017-08-18T13:03:37.255Z,99772.08
2017-08-18T13:06:39.409Z,99760.62
2017-08-18T13:09:40.820Z,99758.50
2017-08-18T13:12:42.168Z,99764.84
2017-08-18T13:15:43.560Z,99749.48
2017-08-18T13:18:44.935Z,99748.19
2017-08-18T13:21:47.049Z,99748.63
2017-08-18T13:24:48.364Z,99746.51
2017-08-18T13:27:49.791Z,99740.67
2017-08-18T13:30:51.880Z,99741.31
2017-08-18T13:33:53.285Z,99743.84
2017-08-18T13:36:54.635Z,99755.23
2017-08-18T13:39:56.037Z,99748.46
2017-08-18T13:42:57.639Z,99751.49
2017-08-18T13:45:59.003Z,99750.23
2017-08-18T13:49:00.414Z,99742.47
2017-08-18T13:52:01.837Z,99750.27
2017-08-18T13:55:03.984Z,99746.02
2017-08-18T13:58:05.347Z,99740.88
2017-08-18T14:01:07.503Z,99740.89
2017-08-18T14:04:08.914Z,99727.88
2017-08-18T14:07:10.297Z,99720.79
2017-08-18T14:10:11.805Z,99731.34
2017-08-18T14:13:13.696Z,99741.55
2017-08-18T14:16:15.161Z,99720.00
2017-08-18T14:19:16.544Z,99718.22
2017-08-18T14:22:17.967Z,99707.17
2017-08-18T14:25:25.405Z,99717.91
2017-08-18T14:28:27.730Z,99717.63
2017-08-18T14:31:29.494Z,99717.88
2017-08-18T14:34:30.869Z,99714.25
2017-08-18T14:37:32.449Z,99711.72
2017-08-18T14:40:33.833Z,99710.31
2017-08-18T14:43:35.252Z,99707.25
2017-08-18T14:46:36.609Z,99709.36
2017-08-18T14:49:38.072Z,99717.83
2017-08-18T14:52:39.435Z,99731.24
2017-08-18T14:55:40.851Z,99727.53
2017-08-18T14:58:42.571Z,99732.01
2017-08-18T15:01:43.913Z,99737.30
2017-08-18T15:04:45.434Z,99737.67
2017-08-18T15:07:46.836Z,99729.39
2017-08-18T15:10:48.287Z,99732.13
2017-08-18T15:13:49.644Z,99734.95
2017-08-18T15:16:51.048Z,99727.32
2017-08-18T15:19:52.401Z,99730.69
2017-08-18T15:22:54.073Z,99727.56
2017-08-18T15:25:56.468Z,99731.88
2017-08-18T15:28:58.498Z,99730.07
2017-08-18T15:31:59.991Z,99769.51
2017-08-18T15:35:01.438Z,99793.46
2017-08-18T15:38:02.966Z,99789.63
2017-08-18T15:41:04.422Z,99775.94
2017-08-18T15:44:06.589Z,99751.27
2017-08-18T15:47:08.804Z,99752.28
2017-08-18T15:50:11.188Z,99769.34
2017-08-18T15:53:12.597Z,99766.92
2017-08-18T15:56:15.842Z,99764.63
2017-08-18T15:59:17.466Z,99759.16
2017-08-18T16:02:19.638Z,99752.47
2017-08-18T16:05:22.747Z,99756.25
2017-08-18T16:08:25.733Z,99760.78
2017-08-18T16:11:27.200Z,99758.14
2017-08-18T16:14:29.305Z,99758.28
2017-08-18T16:17:31.447Z,99762.08
2017-08-18T16:20:33.443Z,99750.41
2017-08-18T16:23:36.176Z,99753.94
2017-08-18T16:26:37.621Z,99743.50
2017-08-18T16:29:39.919Z,99750.68
2017-08-18T16:32:41.791Z,99749.05
2017-08-18T16:35:44.233Z,99755.35
2017-08-18T16:38:45.638Z,99759.94
2017-08-18T16:41:47.775Z,99760.93
2017-08-18T16:44:50.618Z,99757.06
2017-08-18T16:47:51.988Z,99767.31
2017-08-18T16:50:53.561Z,99765.61
2017-08-18T16:53:55.097Z,99766.37
2017-08-18T16:56:57.095Z,99770.43
2017-08-18T16:59:59.360Z,99762.31
2017-08-18T17:03:00.785Z,99766.73
2017-08-18T17:06:02.364Z,99765.97
2017-08-18T17:09:03.844Z,99757.49
2017-08-18T17:12:06.012Z,99757.77
2017-08-18T17:15:09.168Z,99763.97
2017-08-18T17:18:10.931Z,99773.25
2017-08-18T17:21:12.373Z,99764.75
2017-08-18T17:24:14.441Z,99771.17
2017-08-18T17:27:15.860Z,99769.16
2017-08-18T17:30:17.315Z,99767.33
2017-08-18T17:33:18.732Z,99770.41
2017-08-18T17:36:21.287Z,99768.52
2017-08-18T17:39:22.912Z,99758.63
2017-08-18T17:42:25.188Z,99762.70
2017-08-18T17:45:27.584Z,99769.05
2017-08-18T17:48:29.685Z,99763.03
2017-08-18T17:51:31.330Z,99765.02
2017-08-18T17:54:33.465Z,99771.61
2017-08-18T17:57:35.065Z,99777.80
2017-08-18T18:00:37.854Z,99785.59
2017-08-18T18:03:40.109Z,99786.84
2017-08-18T18:06:42.713Z,99784.50
2017-08-18T18:09:44.485Z,99779.83
2017-08-18T18:12:45.855Z,99770.15
2017-08-18T18:15:47.289Z,99775.83
2017-08-18T18:18:49.042Z,99773.99
2017-08-18T18:21:51.937Z,99773.94
2017-08-18T18:24:53.967Z,99773.88
2017-08-18T18:27:57.518Z,99782.55
2017-08-18T18:30:59.365Z,99785.91
2017-08-18T18:34:01.161Z,99783.94
2017-08-18T18:37:03.901Z,99776.64
2017-08-18T18:40:05.682Z,99788.03
2017-08-18T18:43:07.828Z,99793.20
2017-08-18T18:46:10.581Z,99789.88
2017-08-18T18:49:14.107Z,99785.77
2017-08-18T18:52:16.128Z,99787.16
2017-08-18T18:55:18.930Z,99799.52
2017-08-18T18:58:20.800Z,99806.41
2017-08-18T19:01:23.143Z,99798.65
2017-08-18T19:04:25.211Z,99791.58
2017-08-18T19:07:27.271Z,99800.31
2017-08-18T19:10:29.317Z,99805.77
2017-08-18T19:13:30.813Z,99818.92
2017-08-18T19:16:32.938Z,99819.66
2017-08-18T19:19:35.488Z,99804.06
2017-08-18T19:22:36.919Z,99818.06
2017-08-18T19:25:38.343Z,99809.99
2017-08-18T19:28:39.785Z,99812.81
2017-08-18T19:31:43.432Z,99828.41
2017-08-18T19:34:46.207Z,99828.98
2017-08-18T19:37:48.370Z,99836.98
2017-08-18T19:40:52.031Z,99847.45
2017-08-18T19:43:53.772Z,99840.64
2017-08-18T19:46:56.028Z,99853.74
2017-08-18T19:50:00.194Z,99856.59
2017-08-18T19:53:03.235Z,99853.81
2017-08-18T19:56:06.069Z,99858.55
2017-08-18T19:59:10.049Z,99854.79
2017-08-18T20:02:11.469Z,99857.73
2017-08-18T20:05:14.733Z,99858.36
2017-08-18T20:08:16.850Z,99856.70
2017-08-18T20:11:18.739Z,99864.06
2017-08-18T20:14:23.516Z,99866.33
2017-08-18T20:17:31.878Z,99866.46
2017-08-18T20:20:36.028Z,99868.60
2017-08-18T20:23:39.555Z,99853.89
2017-08-18T20:26:42.016Z,99871.58
2017-08-18T20:29:43.417Z,99879.09
2017-08-18T20:32:44.831Z,99892.11
2017-08-18T20:35:47.461Z,99902.56
2017-08-18T20:38:48.982Z,99914.16
2017-08-18T20:41:51.198Z,99922.28
2017-08-18T20:44:52.829Z,99918.73
2017-08-18T20:47:54.305Z,99919.52
2017-08-18T20:50:55.850Z,99907.88
2017-08-18T20:53:57.323Z,99912.25
2017-08-18T20:56:58.887Z,99907.44
2017-08-18T21:00:00.373Z,99909.86
2017-08-18T21:03:01.967Z,99909.14
2017-08-18T21:06:03.841Z,99917.71
2017-08-18T21:09:05.276Z,99911.34
2017-08-18T21:12:06.806Z,99916.03
2017-08-18T21:15:09.047Z,99914.58
2017-08-18T21:18:10.494Z,99907.78
2017-08-18T21:21:11.932Z,99910.20
2017-08-18T21:24:13.505Z,99913.31
2017-08-18T21:27:14.933Z,99921.11
2017-08-18T21:30:16.402Z,99911.66
2017-08-18T21:33:18.009Z,99916.45
2017-08-18T21:36:20.172Z,99912.62
2017-08-18T21:39:22.820Z,99926.69
2017-08-18T21:42:24.197Z,99932.42
2017-08-18T21:45:26.398Z,99929.34
2017-08-18T21:48:27.792Z,99928.66
2017-08-18T21:51:29.241Z,99926.03
2017-08-18T21:54:30.640Z,99928.94
2017-08-18T21:57:32.065Z,99940.05
2017-08-18T22:00:33.528Z,99941.09
2017-08-18T22:03:35.692Z,99950.27
2017-08-18T22:06:37.862Z,99926.85
2017-08-18T22:09:39.958Z,99947.45
2017-08-18T22:12:41.418Z,99945.82
2017-08-18T22:15:42.793Z,99941.64
2017-08-18T22:18:44.267Z,99954.17
2017-08-18T22:21:45.977Z,99954.34
2017-08-18T22:24:47.347Z,99944.39
2017-08-18T22:27:48.761Z,99948.57
2017-08-18T22:30:50.896Z,99942.80
2017-08-18T22:37:00.413Z,99950.34
2017-08-18T22:40:01.785Z,99950.63
2017-08-18T22:43:03.181Z,99950.44
2017-08-18T22:46:05.260Z,99953.52
2017-08-18T22:49:07.512Z,99960.41
2017-08-18T22:52:09.695Z,99960.28
2017-08-18T22:55:11.077Z,99963.11
2017-08-18T22:58:12.519Z,99964.14
2017-08-18T23:01:13.911Z,99966.62
2017-08-18T23:04:15.327Z,99965.97
2017-08-18T23:07:16.731Z,99970.98
2017-08-18T23:10:18.275Z,99985.37
2017-08-18T23:13:19.647Z,99977.80
2017-08-18T23:16:21.933Z,99977.73
2017-08-18T23:19:24.028Z,99974.80
2017-08-18T23:22:25.848Z,99981.34
2017-08-18T23:25:27.261Z,99994.64
2017-08-18T23:28:28.649Z,99988.37
2017-08-18T23:31:30.515Z,99990.72
2017-08-18T23:34:33.146Z,99996.98
2017-08-18T23:37:35.179Z,99983.73
2017-08-18T23:40:36.624Z,99986.37
2017-08-18T23:43:39.458Z,99991.66
2017-08-18T23:46:40.834Z,99989.05
2017-08-18T23:49:42.228Z,99995.27
2017-08-18T23:52:44.155Z,99999.51
2017-08-18T23:55:46.658Z,99984.78
2017-08-18T23:58:48.516Z,99986.00
